sensor_id;sensor_type;location;lat;lon;timestamp;pressure;altitude;pressure_sealevel;temperature;humidity
3960;BME280;1994;48.640;8.894;2023-03-13T00:01:40;95659.19;;;10.06;76.84
3960;BME280;1994;48.640;8.894;2023-03-13T00:04:06;95656.84;;;10.05;76.59
3960;BME280;1994;48.640;8.894;2023-03-13T00:06:35;95661.06;;;10.11;76.19
3960;BME280;1994;48.640;8.894;2023-03-13T00:09:04;95658.47;;;10.11;76.14
3960;BME280;1994;48.640;8.894;2023-03-13T00:11:33;95659.78;;;10.13;76.27
3960;BME280;1994;48.640;8.894;2023-03-13T00:14:01;95662.56;;;10.07;76.49
3960;BME280;1994;48.640;8.894;2023-03-13T00:16:28;95652.09;;;10.02;76.67
3960;BME280;1994;48.640;8.894;2023-03-13T00:18:56;95664.66;;;10.10;76.40
3960;BME280;1994;48.640;8.894;2023-03-13T00:21:25;95664.50;;;10.00;76.45
3960;BME280;1994;48.640;8.894;2023-03-13T00:23:51;95656.22;;;9.98;76.77
3960;BME280;1994;48.640;8.894;2023-03-13T00:26:21;95658.25;;;9.96;76.78
3960;BME280;1994;48.640;8.894;2023-03-13T00:28:48;95660.47;;;10.04;76.71
3960;BME280;1994;48.640;8.894;2023-03-13T00:31:27;95659.34;;;10.00;76.83
3960;BME280;1994;48.640;8.894;2023-03-13T00:34:00;95660.16;;;9.84;77.63
3960;BME280;1994;48.640;8.894;2023-03-13T00:36:33;95659.22;;;9.90;77.57
3960;BME280;1994;48.640;8.894;2023-03-13T00:38:59;95655.28;;;9.87;77.73
3960;BME280;1994;48.640;8.894;2023-03-13T00:41:31;95652.66;;;9.82;78.09
3960;BME280;1994;48.640;8.894;2023-03-13T00:43:57;95646.28;;;9.68;78.70
3960;BME280;1994;48.640;8.894;2023-03-13T00:46:26;95661.47;;;9.65;78.69
3960;BME280;1994;48.640;8.894;2023-03-13T00:48:53;95651.59;;;9.62;79.12
3960;BME280;1994;48.640;8.894;2023-03-13T00:51:20;95645.34;;;9.58;78.85
3960;BME280;1994;48.640;8.894;2023-03-13T00:53:48;95635.25;;;9.78;78.15
3960;BME280;1994;48.640;8.894;2023-03-13T00:56:19;95637.31;;;9.76;78.28
3960;BME280;1994;48.640;8.894;2023-03-13T00:58:47;95640.94;;;9.75;78.57
3960;BME280;1994;48.640;8.894;2023-03-13T01:01:24;95630.44;;;9.65;78.74
3960;BME280;1994;48.640;8.894;2023-03-13T01:03:56;95620.88;;;9.65;79.17
3960;BME280;1994;48.640;8.894;2023-03-13T01:06:26;95628.41;;;9.67;78.89
3960;BME280;1994;48.640;8.894;2023-03-13T01:08:52;95620.56;;;9.62;79.39
3960;BME280;1994;48.640;8.894;2023-03-13T01:11:25;95616.38;;;9.56;79.79
3960;BME280;1994;48.640;8.894;2023-03-13T01:13:56;95614.81;;;9.55;79.85
3960;BME280;1994;48.640;8.894;2023-03-13T01:16:23;95612.28;;;9.60;79.49
3960;BME280;1994;48.640;8.894;2023-03-13T01:18:54;95607.56;;;9.57;79.97
3960;BME280;1994;48.640;8.894;2023-03-13T01:21:22;95593.81;;;9.51;80.07
3960;BME280;1994;48.640;8.894;2023-03-13T01:23:50;95595.06;;;9.49;80.29
3960;BME280;1994;48.640;8.894;2023-03-13T01:26:17;95597.28;;;9.40;80.78
3960;BME280;1994;48.640;8.894;2023-03-13T01:28:44;95591.47;;;9.50;80.21
3960;BME280;1994;48.640;8.894;2023-03-13T01:31:18;95586.59;;;9.32;80.63
3960;BME280;1994;48.640;8.894;2023-03-13T01:33:48;95585.19;;;9.46;80.54
3960;BME280;1994;48.640;8.894;2023-03-13T01:36:15;95578.47;;;9.45;80.60
3960;BME280;1994;48.640;8.894;2023-03-13T01:38:41;95580.03;;;9.46;80.19
3960;BME280;1994;48.640;8.894;2023-03-13T01:41:10;95569.44;;;9.69;78.94
3960;BME280;1994;48.640;8.894;2023-03-13T01:43:36;95566.88;;;9.69;78.40
3960;BME280;1994;48.640;8.894;2023-03-13T01:46:14;95553.00;;;9.75;78.39
3960;BME280;1994;48.640;8.894;2023-03-13T01:51:32;95551.41;;;9.74;78.34
3960;BME280;1994;48.640;8.894;2023-03-13T01:57:34;95547.91;;;9.85;77.34
3960;BME280;1994;48.640;8.894;2023-03-13T02:00:15;95538.66;;;9.89;77.62
3960;BME280;1994;48.640;8.894;2023-03-13T02:02:49;95542.69;;;9.80;78.01
3960;BME280;1994;48.640;8.894;2023-03-13T02:05:20;95541.38;;;9.77;77.71
3960;BME280;1994;48.640;8.894;2023-03-13T02:07:58;95543.41;;;9.97;77.36
3960;BME280;1994;48.640;8.894;2023-03-13T02:10:26;95541.78;;;9.91;77.52
3960;BME280;1994;48.640;8.894;2023-03-13T02:12:54;95532.59;;;9.78;78.09
3960;BME280;1994;48.640;8.894;2023-03-13T02:15:23;95528.59;;;9.66;78.58
3960;BME280;1994;48.640;8.894;2023-03-13T02:17:50;95523.94;;;9.68;78.40
3960;BME280;1994;48.640;8.894;2023-03-13T02:20:18;95532.59;;;9.57;79.16
3960;BME280;1994;48.640;8.894;2023-03-13T02:25:48;95528.84;;;9.43;80.29
3960;BME280;1994;48.640;8.894;2023-03-13T02:28:26;95514.81;;;9.39;80.60
3960;BME280;1994;48.640;8.894;2023-03-13T02:30:57;95517.53;;;9.49;80.67
3960;BME280;1994;48.640;8.894;2023-03-13T02:33:30;95507.53;;;9.36;81.15
3960;BME280;1994;48.640;8.894;2023-03-13T02:36:00;95512.41;;;9.32;81.37
3960;BME280;1994;48.640;8.894;2023-03-13T02:38:30;95505.50;;;9.38;81.42
3960;BME280;1994;48.640;8.894;2023-03-13T02:40:59;95495.81;;;9.28;81.80
3960;BME280;1994;48.640;8.894;2023-03-13T02:43:33;95488.91;;;9.12;82.66
3960;BME280;1994;48.640;8.894;2023-03-13T02:48:40;95474.41;;;9.11;83.60
3960;BME280;1994;48.640;8.894;2023-03-13T02:51:25;95476.41;;;9.26;82.99
3960;BME280;1994;48.640;8.894;2023-03-13T02:53:54;95474.84;;;9.25;83.30
3960;BME280;1994;48.640;8.894;2023-03-13T02:56:24;95470.81;;;9.12;84.51
3960;BME280;1994;48.640;8.894;2023-03-13T02:58:50;95469.88;;;9.18;84.63
3960;BME280;1994;48.640;8.894;2023-03-13T03:01:16;95459.31;;;9.25;84.76
3960;BME280;1994;48.640;8.894;2023-03-13T03:03:41;95447.94;;;9.21;84.97
3960;BME280;1994;48.640;8.894;2023-03-13T03:06:07;95441.34;;;9.35;85.05
3960;BME280;1994;48.640;8.894;2023-03-13T03:08:34;95434.25;;;9.47;85.38
3960;BME280;1994;48.640;8.894;2023-03-13T03:11:00;95438.41;;;9.48;84.75
3960;BME280;1994;48.640;8.894;2023-03-13T03:13:27;95418.34;;;9.33;85.62
3960;BME280;1994;48.640;8.894;2023-03-13T03:15:53;95422.69;;;9.28;85.89
3960;BME280;1994;48.640;8.894;2023-03-13T03:18:19;95413.50;;;9.42;86.20
3960;BME280;1994;48.640;8.894;2023-03-13T03:20:45;95413.63;;;9.52;86.27
3960;BME280;1994;48.640;8.894;2023-03-13T03:23:14;95408.25;;;9.58;86.99
3960;BME280;1994;48.640;8.894;2023-03-13T03:25:40;95407.06;;;9.66;87.90
3960;BME280;1994;48.640;8.894;2023-03-13T03:28:06;95400.22;;;10.13;89.43
3960;BME280;1994;48.640;8.894;2023-03-13T03:30:31;95408.25;;;10.48;88.68
3960;BME280;1994;48.640;8.894;2023-03-13T03:32:57;95413.09;;;10.81;87.66
3960;BME280;1994;48.640;8.894;2023-03-13T03:35:23;95405.66;;;10.94;87.06
3960;BME280;1994;48.640;8.894;2023-03-13T03:37:49;95401.28;;;11.05;86.96
3960;BME280;1994;48.640;8.894;2023-03-13T03:40:14;95414.81;;;11.12;87.11
3960;BME280;1994;48.640;8.894;2023-03-13T03:42:40;95402.38;;;11.14;87.19
3960;BME280;1994;48.640;8.894;2023-03-13T03:45:07;95411.19;;;11.13;88.01
3960;BME280;1994;48.640;8.894;2023-03-13T03:47:33;95403.38;;;11.08;88.46
3960;BME280;1994;48.640;8.894;2023-03-13T03:49:58;95411.69;;;11.15;88.61
3960;BME280;1994;48.640;8.894;2023-03-13T03:52:24;95407.06;;;11.22;88.53
3960;BME280;1994;48.640;8.894;2023-03-13T03:54:50;95402.09;;;11.10;89.78
3960;BME280;1994;48.640;8.894;2023-03-13T03:57:15;95406.00;;;11.13;90.29
3960;BME280;1994;48.640;8.894;2023-03-13T03:59:44;95419.75;;;11.18;90.07
3960;BME280;1994;48.640;8.894;2023-03-13T04:02:10;95413.22;;;11.11;90.63
3960;BME280;1994;48.640;8.894;2023-03-13T04:04:35;95400.56;;;11.14;90.80
3960;BME280;1994;48.640;8.894;2023-03-13T04:07:01;95397.19;;;11.14;90.88
3960;BME280;1994;48.640;8.894;2023-03-13T04:09:27;95407.06;;;11.17;91.00
3960;BME280;1994;48.640;8.894;2023-03-13T04:11:53;95400.34;;;11.26;90.65
3960;BME280;1994;48.640;8.894;2023-03-13T04:14:18;95406.06;;;11.28;90.69
3960;BME280;1994;48.640;8.894;2023-03-13T04:16:44;95400.31;;;11.21;91.02
3960;BME280;1994;48.640;8.894;2023-03-13T04:19:10;95412.75;;;11.14;91.81
3960;BME280;1994;48.640;8.894;2023-03-13T04:21:36;95400.28;;;11.16;91.76
3960;BME280;1994;48.640;8.894;2023-03-13T04:24:02;95408.03;;;11.11;92.01
3960;BME280;1994;48.640;8.894;2023-03-13T04:26:28;95389.63;;;11.07;92.25
3960;BME280;1994;48.640;8.894;2023-03-13T04:28:54;95376.44;;;11.09;92.16
3960;BME280;1994;48.640;8.894;2023-03-13T04:31:19;95375.16;;;11.16;91.59
3960;BME280;1994;48.640;8.894;2023-03-13T04:33:45;95371.53;;;11.17;91.45
3960;BME280;1994;48.640;8.894;2023-03-13T04:36:11;95382.44;;;11.24;90.62
3960;BME280;1994;48.640;8.894;2023-03-13T04:38:37;95387.34;;;11.21;90.41
3960;BME280;1994;48.640;8.894;2023-03-13T04:41:02;95374.41;;;11.26;90.18
3960;BME280;1994;48.640;8.894;2023-03-13T04:43:28;95374.66;;;11.24;90.15
3960;BME280;1994;48.640;8.894;2023-03-13T04:45:54;95372.34;;;11.28;90.26
3960;BME280;1994;48.640;8.894;2023-03-13T04:48:20;95382.44;;;11.24;89.89
3960;BME280;1994;48.640;8.894;2023-03-13T04:50:47;95380.38;;;11.26;89.99
3960;BME280;1994;48.640;8.894;2023-03-13T04:53:14;95368.72;;;11.24;90.12
3960;BME280;1994;48.640;8.894;2023-03-13T04:55:40;95371.31;;;11.24;89.96
3960;BME280;1994;48.640;8.894;2023-03-13T04:58:06;95376.50;;;11.29;89.75
3960;BME280;1994;48.640;8.894;2023-03-13T05:00:32;95364.03;;;11.26;90.27
3960;BME280;1994;48.640;8.894;2023-03-13T05:02:58;95359.41;;;11.28;90.30
3960;BME280;1994;48.640;8.894;2023-03-13T05:05:23;95348.00;;;11.29;90.16
3960;BME280;1994;48.640;8.894;2023-03-13T05:07:49;95365.59;;;11.32;89.73
3960;BME280;1994;48.640;8.894;2023-03-13T05:10:15;95360.41;;;11.32;89.83
3960;BME280;1994;48.640;8.894;2023-03-13T05:12:41;95375.47;;;11.30;90.10
3960;BME280;1994;48.640;8.894;2023-03-13T05:15:07;95383.78;;;11.37;89.90
3960;BME280;1994;48.640;8.894;2023-03-13T05:17:33;95370.81;;;11.37;89.74
3960;BME280;1994;48.640;8.894;2023-03-13T05:19:59;95377.56;;;11.43;89.33
3960;BME280;1994;48.640;8.894;2023-03-13T05:22:24;95375.22;;;11.46;89.16
3960;BME280;1994;48.640;8.894;2023-03-13T05:24:50;95379.88;;;11.39;89.72
3960;BME280;1994;48.640;8.894;2023-03-13T05:27:16;95354.22;;;11.43;89.55
3960;BME280;1994;48.640;8.894;2023-03-13T05:29:42;95364.88;;;11.41;89.61
3960;BME280;1994;48.640;8.894;2023-03-13T05:32:07;95362.00;;;11.48;89.10
3960;BME280;1994;48.640;8.894;2023-03-13T05:34:33;95347.00;;;11.55;88.73
3960;BME280;1994;48.640;8.894;2023-03-13T05:36:59;95356.59;;;11.49;89.13
3960;BME280;1994;48.640;8.894;2023-03-13T05:39:24;95349.59;;;11.50;89.26
3960;BME280;1994;48.640;8.894;2023-03-13T05:41:50;95359.66;;;11.46;89.30
3960;BME280;1994;48.640;8.894;2023-03-13T05:44:16;95367.75;;;11.55;88.99
3960;BME280;1994;48.640;8.894;2023-03-13T05:46:42;95375.00;;;11.53;89.98
3960;BME280;1994;48.640;8.894;2023-03-13T05:49:07;95359.97;;;11.50;90.04
3960;BME280;1994;48.640;8.894;2023-03-13T05:51:33;95370.31;;;11.45;90.24
3960;BME280;1994;48.640;8.894;2023-03-13T05:53:59;95361.00;;;11.44;90.31
3960;BME280;1994;48.640;8.894;2023-03-13T05:56:25;95376.53;;;11.54;90.22
3960;BME280;1994;48.640;8.894;2023-03-13T05:58:53;95385.91;;;11.50;90.51
3960;BME280;1994;48.640;8.894;2023-03-13T06:01:19;95369.81;;;11.53;90.33
3960;BME280;1994;48.640;8.894;2023-03-13T06:03:45;95367.72;;;11.45;91.13
3960;BME280;1994;48.640;8.894;2023-03-13T06:06:11;95346.44;;;11.43;91.36
3960;BME280;1994;48.640;8.894;2023-03-13T06:08:36;95361.50;;;11.51;90.99
3960;BME280;1994;48.640;8.894;2023-03-13T06:11:02;95364.63;;;11.53;91.28
3960;BME280;1994;48.640;8.894;2023-03-13T06:13:28;95363.56;;;11.49;91.66
3960;BME280;1994;48.640;8.894;2023-03-13T06:15:56;95369.81;;;11.53;91.93
3960;BME280;1994;48.640;8.894;2023-03-13T06:18:23;95368.25;;;11.52;91.75
3960;BME280;1994;48.640;8.894;2023-03-13T06:20:55;95366.69;;;11.51;92.05
3960;BME280;1994;48.640;8.894;2023-03-13T06:23:21;95359.66;;;11.46;92.45
3960;BME280;1994;48.640;8.894;2023-03-13T06:25:47;95364.09;;;11.46;92.25
3960;BME280;1994;48.640;8.894;2023-03-13T06:28:13;95366.97;;;11.54;92.04
3960;BME280;1994;48.640;8.894;2023-03-13T06:30:39;95382.25;;;11.51;92.16
3960;BME280;1994;48.640;8.894;2023-03-13T06:33:05;95377.59;;;11.58;91.89
3960;BME280;1994;48.640;8.894;2023-03-13T06:35:31;95378.69;;;11.62;91.78
3960;BME280;1994;48.640;8.894;2023-03-13T06:37:57;95385.94;;;11.65;91.73
3960;BME280;1994;48.640;8.894;2023-03-13T06:40:23;95369.84;;;11.63;91.68
3960;BME280;1994;48.640;8.894;2023-03-13T06:42:48;95385.91;;;11.60;92.14
3960;BME280;1994;48.640;8.894;2023-03-13T06:45:14;95382.31;;;11.61;92.39
3960;BME280;1994;48.640;8.894;2023-03-13T06:47:40;95380.50;;;11.66;92.37
3960;BME280;1994;48.640;8.894;2023-03-13T06:50:06;95379.19;;;11.69;92.24
3960;BME280;1994;48.640;8.894;2023-03-13T06:52:32;95381.28;;;11.67;92.75
3960;BME280;1994;48.640;8.894;2023-03-13T06:54:58;95379.19;;;11.69;92.82
3960;BME280;1994;48.640;8.894;2023-03-13T06:57:24;95376.09;;;11.67;93.18
3960;BME280;1994;48.640;8.894;2023-03-13T06:59:49;95372.97;;;11.65;93.26
3960;BME280;1994;48.640;8.894;2023-03-13T07:02:15;95388.53;;;11.70;93.13
3960;BME280;1994;48.640;8.894;2023-03-13T07:04:41;95381.81;;;11.74;93.04
3960;BME280;1994;48.640;8.894;2023-03-13T07:07:08;95394.25;;;11.67;93.61
3960;BME280;1994;48.640;8.894;2023-03-13T07:09:33;95386.19;;;11.73;93.61
3960;BME280;1994;48.640;8.894;2023-03-13T07:11:59;95381.31;;;11.77;93.55
3960;BME280;1994;48.640;8.894;2023-03-13T07:14:27;95388.78;;;11.73;93.92
3960;BME280;1994;48.640;8.894;2023-03-13T07:16:53;95383.88;;;11.87;93.47
3960;BME280;1994;48.640;8.894;2023-03-13T07:19:19;95385.97;;;11.80;93.45
3960;BME280;1994;48.640;8.894;2023-03-13T07:21:45;95387.00;;;11.89;93.17
3960;BME280;1994;48.640;8.894;2023-03-13T07:24:11;95384.41;;;11.89;93.09
3960;BME280;1994;48.640;8.894;2023-03-13T07:26:37;95392.22;;;11.94;92.77
3960;BME280;1994;48.640;8.894;2023-03-13T07:29:03;95396.38;;;12.00;92.51
3960;BME280;1994;48.640;8.894;2023-03-13T07:31:30;95382.88;;;11.88;93.29
3960;BME280;1994;48.640;8.894;2023-03-13T07:33:58;95373.00;;;11.95;93.15
3960;BME280;1994;48.640;8.894;2023-03-13T07:36:24;95374.06;;;12.04;92.83
3960;BME280;1994;48.640;8.894;2023-03-13T07:38:51;95373.50;;;12.02;92.61
3960;BME280;1994;48.640;8.894;2023-03-13T07:41:18;95376.09;;;12.07;92.04
3960;BME280;1994;48.640;8.894;2023-03-13T07:43:45;95359.75;;;12.11;92.25
3960;BME280;1994;48.640;8.894;2023-03-13T07:46:17;95360.28;;;12.13;92.17
3960;BME280;1994;48.640;8.894;2023-03-13T07:48:43;95358.97;;;12.11;92.11
3960;BME280;1994;48.640;8.894;2023-03-13T07:51:16;95348.59;;;12.16;91.56
3960;BME280;1994;48.640;8.894;2023-03-13T07:53:44;95344.97;;;12.17;91.74
3960;BME280;1994;48.640;8.894;2023-03-13T07:56:14;95338.72;;;12.23;91.20
3960;BME280;1994;48.640;8.894;2023-03-13T07:58:42;95351.19;;;12.31;91.10
3960;BME280;1994;48.640;8.894;2023-03-13T08:01:11;95334.03;;;12.30;91.06
3960;BME280;1994;48.640;8.894;2023-03-13T08:03:37;95338.16;;;12.36;90.28
3960;BME280;1994;48.640;8.894;2023-03-13T08:06:08;95315.31;;;12.43;90.11
3960;BME280;1994;48.640;8.894;2023-03-13T08:08:35;95308.00;;;12.50;90.06
3960;BME280;1994;48.640;8.894;2023-03-13T08:11:06;95299.97;;;12.51;89.25
3960;BME280;1994;48.640;8.894;2023-03-13T08:13:34;95288.75;;;12.66;88.55
3960;BME280;1994;48.640;8.894;2023-03-13T08:16:13;95290.28;;;12.72;88.52
3960;BME280;1994;48.640;8.894;2023-03-13T08:18:42;95295.94;;;12.79;88.37
3960;BME280;1994;48.640;8.894;2023-03-13T08:21:21;95299.56;;;12.83;88.02
3960;BME280;1994;48.640;8.894;2023-03-13T08:23:51;95294.34;;;12.88;88.32
3960;BME280;1994;48.640;8.894;2023-03-13T08:26:20;95310.19;;;12.91;87.51
3960;BME280;1994;48.640;8.894;2023-03-13T08:28:50;95300.38;;;12.83;87.97
3960;BME280;1994;48.640;8.894;2023-03-13T08:31:20;95307.84;;;12.90;87.93
3960;BME280;1994;48.640;8.894;2023-03-13T08:33:47;95308.09;;;12.93;87.53
3960;BME280;1994;48.640;8.894;2023-03-13T08:36:14;95305.59;;;12.78;87.21
3960;BME280;1994;48.640;8.894;2023-03-13T08:38:42;95312.81;;;12.86;87.12
3960;BME280;1994;48.640;8.894;2023-03-13T08:41:14;95307.34;;;12.93;86.82
3960;BME280;1994;48.640;8.894;2023-03-13T08:43:40;95307.34;;;12.93;86.04
3960;BME280;1994;48.640;8.894;2023-03-13T08:46:06;95320.84;;;12.95;86.64
3960;BME280;1994;48.640;8.894;2023-03-13T08:48:31;95323.44;;;13.00;86.07
3960;BME280;1994;48.640;8.894;2023-03-13T08:51:13;95315.28;;;13.21;85.44
3960;BME280;1994;48.640;8.894;2023-03-13T08:53:41;95315.53;;;13.25;84.66
3960;BME280;1994;48.640;8.894;2023-03-13T08:56:10;95323.81;;;13.27;84.60
3960;BME280;1994;48.640;8.894;2023-03-13T08:58:36;95314.44;;;13.31;84.64
3960;BME280;1994;48.640;8.894;2023-03-13T09:01:11;95320.72;;;13.25;84.19
3960;BME280;1994;48.640;8.894;2023-03-13T09:03:38;95340.50;;;13.21;85.15
3960;BME280;1994;48.640;8.894;2023-03-13T09:06:04;95343.06;;;13.26;85.40
3960;BME280;1994;48.640;8.894;2023-03-13T09:08:31;95346.72;;;13.25;84.87
3960;BME280;1994;48.640;8.894;2023-03-13T09:11:00;95344.13;;;13.25;85.10
3960;BME280;1994;48.640;8.894;2023-03-13T09:13:28;95335.78;;;13.28;84.96
3960;BME280;1994;48.640;8.894;2023-03-13T09:18:24;95335.13;;;13.51;83.40
3960;BME280;1994;48.640;8.894;2023-03-13T09:20:50;95328.22;;;13.70;82.97
3960;BME280;1994;48.640;8.894;2023-03-13T09:23:17;95344.06;;;13.73;82.33
3960;BME280;1994;48.640;8.894;2023-03-13T09:25:43;95336.66;;;14.24;80.11
3960;BME280;1994;48.640;8.894;2023-03-13T09:28:09;95334.09;;;14.47;79.12
3960;BME280;1994;48.640;8.894;2023-03-13T09:30:35;95335.84;;;15.22;76.31
3960;BME280;1994;48.640;8.894;2023-03-13T09:33:00;95334.22;;;15.82;73.62
3960;BME280;1994;48.640;8.894;2023-03-13T09:35:26;95347.06;;;15.97;72.10
3960;BME280;1994;48.640;8.894;2023-03-13T09:37:52;95325.34;;;16.47;70.62
3960;BME280;1994;48.640;8.894;2023-03-13T09:40:21;95327.03;;;17.46;66.50
3960;BME280;1994;48.640;8.894;2023-03-13T09:42:55;95327.56;;;18.14;64.39
3960;BME280;1994;48.640;8.894;2023-03-13T09:45:39;95327.38;;;17.88;63.88
3960;BME280;1994;48.640;8.894;2023-03-13T09:48:33;95336.59;;;17.86;62.11
3960;BME280;1994;48.640;8.894;2023-03-13T09:56:23;95315.59;;;20.23;55.71
3960;BME280;1994;48.640;8.894;2023-03-13T09:59:04;95318.00;;;20.37;54.66
3960;BME280;1994;48.640;8.894;2023-03-13T10:01:34;95315.56;;;18.74;58.28
3960;BME280;1994;48.640;8.894;2023-03-13T10:06:44;95310.47;;;20.27;55.93
3960;BME280;1994;48.640;8.894;2023-03-13T10:09:21;95314.81;;;20.06;56.50
3960;BME280;1994;48.640;8.894;2023-03-13T10:12:30;95304.59;;;19.28;57.52
3960;BME280;1994;48.640;8.894;2023-03-13T10:15:26;95308.34;;;19.61;56.75
3960;BME280;1994;48.640;8.894;2023-03-13T10:17:52;95290.00;;;20.41;55.17
3960;BME280;1994;48.640;8.894;2023-03-13T10:20:28;95291.81;;;20.95;53.46
3960;BME280;1994;48.640;8.894;2023-03-13T10:25:37;95295.72;;;18.59;58.28
3960;BME280;1994;48.640;8.894;2023-03-13T10:28:07;95294.34;;;17.79;62.10
3960;BME280;1994;48.640;8.894;2023-03-13T10:30:36;95294.31;;;17.08;63.73
3960;BME280;1994;48.640;8.894;2023-03-13T10:35:40;95283.84;;;17.08;64.66
3960;BME280;1994;48.640;8.894;2023-03-13T10:38:18;95285.69;;;17.07;64.66
3960;BME280;1994;48.640;8.894;2023-03-13T10:41:00;95269.13;;;17.12;64.89
3960;BME280;1994;48.640;8.894;2023-03-13T10:43:28;95264.50;;;16.82;65.37
3960;BME280;1994;48.640;8.894;2023-03-13T10:45:54;95264.31;;;16.78;65.51
3960;BME280;1994;48.640;8.894;2023-03-13T10:48:28;95258.91;;;16.75;65.97
3960;BME280;1994;48.640;8.894;2023-03-13T10:50:55;95258.31;;;16.91;64.62
3960;BME280;1994;48.640;8.894;2023-03-13T10:56:18;95236.97;;;16.98;64.88
3960;BME280;1994;48.640;8.894;2023-03-13T10:58:49;95227.09;;;17.08;64.75
3960;BME280;1994;48.640;8.894;2023-03-13T11:01:29;95224.38;;;17.00;64.01
3960;BME280;1994;48.640;8.894;2023-03-13T11:04:35;95231.63;;;17.03;64.81
3960;BME280;1994;48.640;8.894;2023-03-13T11:12:28;95221.84;;;17.44;63.38
3960;BME280;1994;48.640;8.894;2023-03-13T11:15:01;95222.75;;;17.26;64.35
3960;BME280;1994;48.640;8.894;2023-03-13T11:17:39;95214.50;;;17.32;63.69
3960;BME280;1994;48.640;8.894;2023-03-13T11:20:27;95209.59;;;18.36;61.13
3960;BME280;1994;48.640;8.894;2023-03-13T11:23:33;95185.50;;;20.04;56.43
3960;BME280;1994;48.640;8.894;2023-03-13T11:26:34;95171.59;;;19.06;57.47
3960;BME280;1994;48.640;8.894;2023-03-13T11:31:56;95173.28;;;19.11;57.41
3960;BME280;1994;48.640;8.894;2023-03-13T11:34:47;95150.94;;;20.31;54.67
3960;BME280;1994;48.640;8.894;2023-03-13T11:37:18;95151.41;;;20.33;53.78
3960;BME280;1994;48.640;8.894;2023-03-13T11:40:15;95148.50;;;20.55;54.04
3960;BME280;1994;48.640;8.894;2023-03-13T11:43:19;95142.41;;;20.92;52.43
3960;BME280;1994;48.640;8.894;2023-03-13T11:51:58;95120.97;;;20.52;52.75
3960;BME280;1994;48.640;8.894;2023-03-13T11:57:27;95106.03;;;20.36;52.90
3960;BME280;1994;48.640;8.894;2023-03-13T12:00:21;95116.03;;;20.22;53.24
3960;BME280;1994;48.640;8.894;2023-03-13T12:05:58;95085.09;;;20.48;52.39
3960;BME280;1994;48.640;8.894;2023-03-13T12:08:45;95069.25;;;20.07;52.79
3960;BME280;1994;48.640;8.894;2023-03-13T12:14:02;95069.16;;;19.86;52.81
3960;BME280;1994;48.640;8.894;2023-03-13T12:19:28;95047.91;;;20.00;54.07
3960;BME280;1994;48.640;8.894;2023-03-13T12:21:56;95035.22;;;20.02;54.87
3960;BME280;1994;48.640;8.894;2023-03-13T12:27:34;95009.63;;;20.19;52.04
3960;BME280;1994;48.640;8.894;2023-03-13T12:30:38;95001.94;;;19.77;53.62
3960;BME280;1994;48.640;8.894;2023-03-13T12:33:25;94993.22;;;19.64;52.98
3960;BME280;1994;48.640;8.894;2023-03-13T12:36:37;94994.34;;;20.13;53.40
3960;BME280;1994;48.640;8.894;2023-03-13T12:39:47;94990.97;;;20.33;51.11
3960;BME280;1994;48.640;8.894;2023-03-13T12:42:48;94978.31;;;20.47;51.15
3960;BME280;1994;48.640;8.894;2023-03-13T12:45:21;94964.53;;;20.50;51.65
3960;BME280;1994;48.640;8.894;2023-03-13T12:50:42;94946.75;;;20.26;52.15
3960;BME280;1994;48.640;8.894;2023-03-13T12:56:34;94941.56;;;20.71;51.06
3960;BME280;1994;48.640;8.894;2023-03-13T12:59:45;94935.25;;;20.84;52.15
3960;BME280;1994;48.640;8.894;2023-03-13T13:02:19;94930.47;;;20.98;51.51
3960;BME280;1994;48.640;8.894;2023-03-13T13:04:48;94918.31;;;20.73;50.94
3960;BME280;1994;48.640;8.894;2023-03-13T13:07:28;94907.25;;;20.35;50.77
3960;BME280;1994;48.640;8.894;2023-03-13T13:12:29;94904.47;;;20.64;50.78
3960;BME280;1994;48.640;8.894;2023-03-13T13:15:13;94906.22;;;20.48;51.02
3960;BME280;1994;48.640;8.894;2023-03-13T13:18:03;94915.59;;;19.96;51.55
3960;BME280;1994;48.640;8.894;2023-03-13T13:20:37;94895.81;;;20.31;51.26
3960;BME280;1994;48.640;8.894;2023-03-13T13:28:49;94871.88;;;20.12;52.01
3960;BME280;1994;48.640;8.894;2023-03-13T13:37:01;94846.91;;;20.18;52.48
3960;BME280;1994;48.640;8.894;2023-03-13T13:39:46;94839.91;;;20.10;51.25
3960;BME280;1994;48.640;8.894;2023-03-13T13:45:03;94828.09;;;20.28;51.82
3960;BME280;1994;48.640;8.894;2023-03-13T13:47:31;94829.69;;;20.53;51.80
3960;BME280;1994;48.640;8.894;2023-03-13T13:50:00;94821.16;;;20.68;49.81
3960;BME280;1994;48.640;8.894;2023-03-13T13:52:37;94816.56;;;20.65;49.62
3960;BME280;1994;48.640;8.894;2023-03-13T13:58:18;94811.22;;;20.17;50.42
3960;BME280;1994;48.640;8.894;2023-03-13T14:01:00;94809.09;;;20.43;51.34
3960;BME280;1994;48.640;8.894;2023-03-13T14:03:32;94796.59;;;20.52;48.70
3960;BME280;1994;48.640;8.894;2023-03-13T14:11:53;94782.81;;;20.22;49.78
3960;BME280;1994;48.640;8.894;2023-03-13T14:14:20;94785.56;;;20.14;49.73
3960;BME280;1994;48.640;8.894;2023-03-13T14:16:55;94774.16;;;20.10;51.11
3960;BME280;1994;48.640;8.894;2023-03-13T14:19:38;94771.56;;;20.22;49.67
3960;BME280;1994;48.640;8.894;2023-03-13T14:22:08;94763.91;;;20.41;49.63
3960;BME280;1994;48.640;8.894;2023-03-13T14:24:35;94759.06;;;20.31;49.21
3960;BME280;1994;48.640;8.894;2023-03-13T14:27:14;94757.75;;;20.37;49.38
3960;BME280;1994;48.640;8.894;2023-03-13T14:29:40;94749.66;;;20.42;49.30
3960;BME280;1994;48.640;8.894;2023-03-13T14:32:06;94733.66;;;20.35;50.55
3960;BME280;1994;48.640;8.894;2023-03-13T14:34:33;94742.88;;;20.41;50.13
3960;BME280;1994;48.640;8.894;2023-03-13T14:37:01;94740.03;;;20.46;50.28
3960;BME280;1994;48.640;8.894;2023-03-13T14:42:02;94722.72;;;20.45;49.98
3960;BME280;1994;48.640;8.894;2023-03-13T14:44:32;94710.88;;;20.39;49.97
3960;BME280;1994;48.640;8.894;2023-03-13T14:47:07;94707.13;;;20.52;49.48
3960;BME280;1994;48.640;8.894;2023-03-13T14:49:34;94695.31;;;20.58;49.87
3960;BME280;1994;48.640;8.894;2023-03-13T14:57:56;94683.78;;;20.50;49.85
3960;BME280;1994;48.640;8.894;2023-03-13T15:08:29;94650.81;;;20.65;50.36
3960;BME280;1994;48.640;8.894;2023-03-13T15:10:56;94643.84;;;20.72;49.27
3960;BME280;1994;48.640;8.894;2023-03-13T15:13:37;94638.09;;;20.55;49.56
3960;BME280;1994;48.640;8.894;2023-03-13T15:16:14;94644.00;;;20.52;49.20
3960;BME280;1994;48.640;8.894;2023-03-13T15:18:41;94638.09;;;20.55;50.19
3960;BME280;1994;48.640;8.894;2023-03-13T15:21:28;94621.63;;;20.58;48.74
3960;BME280;1994;48.640;8.894;2023-03-13T15:26:22;94596.09;;;20.58;50.25
3960;BME280;1994;48.640;8.894;2023-03-13T15:28:49;94589.63;;;20.56;50.52
3960;BME280;1994;48.640;8.894;2023-03-13T15:31:16;94590.75;;;20.55;50.03
3960;BME280;1994;48.640;8.894;2023-03-13T15:33:42;94573.66;;;20.37;50.20